Latest Weather Observations for Marble Bar

IDW60801

Issued at 9:32 am WST Tuesday 26 May 2015 (issued every 30 minutes, with the page automatically refreshed every 10 minutes)

About weather observations | Map of weather stations | Latest weather observations for WA | Other Formats
Station Details ID: 004106 Name: MARBLE BAR Lat: -21.18 Lon: 119.75 Height: 182.3 m
Data from the previous 72 hours. | See also: Recent months at Marble Bar
Date/Time
WST
Temp
°C
App
Temp
°C
Dew
Point
Rel
Hum
%
Delta-T
°C
Wind Press
QNH
hPa
Press
MSL
hPa
Rain
since 9 am
mm
Dir
 
Spd
km/h
Gust
km/h
Spd
kts
Gust
kts
26/09:30am 21.4 19.7 11.1 52 5.7 E 11 17 6 9 1019.3 1018.5 0.0
26/09:00am 20.1 19.0 12.1 60 4.5 ESE 9 15 5 8 1019.3 1018.5 2.0
26/08:30am 19.1 17.8 11.4 61 4.3 SE 9 13 5 7 1019.7 1018.9 2.0
26/08:00am 18.5 18.4 12.0 66 3.6 SE 4 9 2 5 1019.3 1018.5 2.0
26/07:30am 17.7 17.9 11.9 69 3.2 ESE 2 4 1 2 1019.2 1018.4 2.0
26/07:00am 17.1 17.5 12.4 74 2.6 SE 2 4 1 2 1019.1 1018.3 2.0
26/06:30am 16.8 17.6 12.7 77 2.3 CALM 0 0 0 0 1018.8 1017.9 2.0
26/06:00am 16.6 16.8 13.1 80 2.0 SE 4 6 2 3 1018.5 1017.6 2.0
26/05:30am 16.5 16.6 12.7 78 2.1 SSE 4 6 2 3 1018.6 1017.7 2.0
26/05:00am 16.7 16.8 12.8 78 2.2 SSE 4 6 2 3 1018.4 1017.5 2.0
26/04:30am 16.5 17.3 12.5 77 2.2 CALM 0 2 0 1 1018.1 1017.2 2.0
26/04:00am 16.8 16.1 11.5 71 2.9 ESE 6 9 3 5 1017.9 1017.0 2.0
26/03:30am 16.7 17.5 12.5 76 2.3 CALM 0 0 0 0 1018.4 1017.5 2.0
26/03:00am 16.6 17.1 12.9 79 2.1 SSE 2 6 1 3 1018.3 1017.4 2.0
26/02:30am 16.9 17.8 12.8 77 2.3 CALM 0 0 0 0 1018.6 1017.7 2.0
26/02:00am 16.5 16.7 13.2 81 1.9 SSW 4 6 2 3 1018.7 1017.8 2.0
26/01:30am 16.1 17.0 12.8 81 1.8 CALM 0 0 0 0 1018.6 1017.7 2.0
26/01:00am 16.4 17.2 12.4 77 2.2 CALM 0 2 0 1 1018.4 1017.5 2.0
26/12:30am 16.4 16.9 12.8 79 2.0 NW 2 4 1 2 1018.9 1018.0 2.0
26/12:00am 16.8 17.3 12.9 78 2.2 SSE 2 6 1 3 1019.2 1018.4 2.0
 
Date/Time
WST
Temp
°C
App
Temp
°C
Dew
Point
Rel
Hum
%
Delta-T
°C
Wind Press
QNH
hPa
Press
MSL
hPa
Rain
since 9 am
mm
Dir
 
Spd
km/h
Gust
km/h
Spd
kts
Gust
kts
25/11:30pm 16.9 16.9 12.4 75 2.5 SE 4 9 2 5 1019.5 1018.7 2.0
25/11:00pm 16.5 17.2 13.4 82 1.7 SE 2 4 1 2 1019.6 1018.8 2.0
25/10:30pm 16.6 17.2 13.1 80 2.0 SSE 2 4 1 2 1019.5 1018.7 2.0
25/10:00pm 16.6 16.0 12.4 76 2.3 SE 7 9 4 5 1019.5 1018.7 2.0
25/09:30pm 16.6 16.3 12.8 78 2.1 SE 6 6 3 3 1019.3 1018.5 2.0
25/09:00pm 17.2 16.7 12.7 75 2.5 SE 7 11 4 6 1019.5 1018.7 2.0
25/08:30pm 17.5 17.1 13.0 75 2.5 ESE 7 11 4 6 1019.5 1018.7 2.0
25/08:00pm 17.5 17.1 13.0 75 2.5 SE 7 13 4 7 1019.3 1018.5 2.0
25/07:30pm 17.7 16.9 13.0 74 2.7 ESE 9 17 5 9 1018.9 1018.0 2.0
25/07:00pm 17.6 17.6 13.7 78 2.2 SE 6 9 3 5 1018.7 1017.8 2.0
25/06:30pm 17.6 17.1 13.7 78 2.2 SE 9 15 5 8 1018.4 1017.5 2.0
25/06:00pm 17.4 16.6 13.9 80 2.0 SE 11 15 6 8 1017.9 1017.0 2.0
25/05:30pm 17.5 16.8 14.4 82 1.8 SE 11 13 6 7 1017.5 1016.7 2.0
25/05:00pm 17.9 17.2 14.2 79 2.1 SE 11 19 6 10 1017.4 1016.6 2.0
25/04:30pm 18.0 17.4 14.5 80 2.0 SE 11 17 6 9 1017.3 1016.5 2.0
25/04:00pm 18.1 17.1 14.6 80 2.0 ESE 13 20 7 11 1017.0 1016.2 2.0
25/03:30pm 18.0 16.1 14.3 79 2.1 SE 17 24 9 13 1017.0 1016.2 2.0
25/03:00pm 18.0 16.7 14.9 82 1.8 ESE 15 22 8 12 1017.1 1016.3 2.0
25/02:30pm 17.6 17.4 15.8 89 1.1 SE 11 17 6 9 1017.6 1016.8 2.0
25/02:00pm 17.1 17.2 15.4 90 1.0 ESE 9 15 5 8 1017.4 1016.6 1.8
25/01:30pm 17.4 16.9 15.0 86 1.4 E 11 17 6 9 1018.2 1017.3 1.0
25/01:00pm 18.4 16.4 13.9 75 2.6 E 17 26 9 14 1018.6 1017.7 0.8
25/12:30pm 18.7 15.9 14.2 75 2.6 E 22 30 12 16 1018.2 1017.3 0.8
25/12:00pm 18.3 15.8 14.2 77 2.4 E 20 28 11 15 1018.9 1018.0 0.8
25/11:30am 17.7 16.2 15.3 86 1.4 E 17 22 9 12 1019.1 1018.3 0.8
25/11:00am 16.5 15.9 14.5 88 1.2 E 11 17 6 9 1019.9 1019.1 0.6
25/10:30am 16.2 14.6 14.0 87 1.3 ESE 15 24 8 13 1019.7 1018.9 0.2
25/10:00am 16.5 14.4 13.6 83 1.6 ESE 17 24 9 13 1020.2 1019.4 0.0
25/09:30am 15.9 13.2 13.4 85 1.4 SE 20 30 11 16 1020.1 1019.3 0.0
25/09:00am 15.7 14.6 13.2 85 1.4 ESE 11 17 6 9 1020.8 1020.0 11.4
25/08:30am 15.3 12.8 13.5 89 1.0 ESE 19 26 10 14 1020.0 1019.2 11.4
25/08:00am 15.1 13.7 13.5 90 0.9 ESE 13 19 7 10 1020.5 1019.7 11.4
25/07:30am 15.1 13.4 13.5 90 0.9 SE 15 20 8 11 1020.3 1019.5 11.4
25/07:00am 15.2 13.5 13.6 90 0.9 SSE 15 20 8 11 1020.2 1019.4 11.4
25/06:30am 15.3 13.0 14.0 92 0.7 SE 19 28 10 15 1020.1 1019.3 11.2
25/06:00am 15.6 15.2 14.1 91 0.9 SE 9 15 5 8 1020.5 1019.7 11.2
25/05:30am 15.6 14.1 14.1 91 0.9 SE 15 20 8 11 1019.5 1018.7 11.0
25/05:00am 15.6 14.8 14.1 91 0.9 SE 11 20 6 11 1019.3 1018.5 11.0
25/04:30am 15.5 14.1 14.4 93 0.6 SE 15 22 8 12 1018.4 1017.5 11.0
25/04:00am 15.7 13.7 14.9 95 0.5 SE 19 24 10 13 1018.4 1017.5 10.0
25/03:30am 15.7 15.6 14.9 95 0.5 SE 9 13 5 7 1018.3 1017.4 9.8
25/03:00am 15.7 14.9 15.1 96 0.3 SE 13 19 7 10 1018.1 1017.2 9.6
25/02:30am 15.9 15.5 15.1 95 0.5 SE 11 17 6 9 1018.6 1017.7 7.6
25/02:00am 16.0 16.0 15.2 95 0.5 SSE 9 11 5 6 1018.7 1017.8 5.6
25/01:30am 16.2 14.7 15.2 94 0.6 SE 17 24 9 13 1018.4 1017.5 3.8
25/01:00am 16.3 16.0 15.5 95 0.5 SE 11 19 6 10 1018.8 1017.9 3.8
25/12:30am 16.4 17.4 15.4 94 0.6 SE 4 6 2 3 1019.2 1018.4 3.2
25/12:00am 16.4 16.0 15.1 92 0.8 ESE 11 17 6 9 1018.7 1017.8 3.0
 
Date/Time
WST
Temp
°C
App
Temp
°C
Dew
Point
Rel
Hum
%
Delta-T
°C
Wind Press
QNH
hPa
Press
MSL
hPa
Rain
since 9 am
mm
Dir
 
Spd
km/h
Gust
km/h
Spd
kts
Gust
kts
24/11:30pm 16.8 17.0 14.8 88 1.2 SE 7 11 4 6 1019.1 1018.3 2.0
24/11:00pm 16.8 15.9 14.8 88 1.2 SE 13 19 7 10 1018.6 1017.7 2.0
24/10:30pm 16.8 17.1 14.6 87 1.3 ESE 6 9 3 5 1019.0 1018.1 2.0
24/10:00pm 17.0 16.9 15.0 88 1.2 SE 9 13 5 7 1019.0 1018.1 2.0
24/09:30pm 17.1 17.1 15.1 88 1.2 SE 9 15 5 8 1018.8 1017.9 2.0
24/09:00pm 17.1 16.7 15.1 88 1.2 SSE 11 20 6 11 1018.4 1017.5 2.0
24/08:30pm 16.6 16.1 15.0 90 0.9 SE 11 20 6 11 1018.4 1017.5 2.0
24/08:00pm 16.7 15.7 14.7 88 1.2 SE 13 19 7 10 1018.7 1017.8 2.0
24/07:30pm 17.1 15.8 14.9 87 1.3 ESE 15 22 8 12 1018.9 1018.0 1.8
24/07:00pm 17.3 16.7 15.6 90 1.0 SE 13 19 7 10 1018.6 1017.7 1.8
24/06:30pm 17.6 18.4 15.9 90 1.0 ESE 6 7 3 4 1018.6 1017.7 1.6
24/06:00pm 17.9 19.4 15.7 87 1.3 E 2 4 1 2 1018.4 1017.5 1.0
24/05:30pm 18.3 18.7 15.4 83 1.7 ESE 7 11 4 6 1017.6 1016.8 0.6
24/05:00pm 19.1 20.0 15.0 77 2.4 ESE 4 6 2 3 1017.6 1016.8 0.2
24/04:30pm 19.3 20.3 15.4 78 2.3 ESE 4 9 2 5 1016.9 1016.1 0.2
24/04:00pm 19.6 19.8 14.6 73 2.9 SE 7 13 4 7 1016.8 1016.0 0.2
24/03:30pm 20.0 20.2 13.2 65 3.9 ESE 4 11 2 6 1017.3 1016.5 0.2
24/03:00pm 20.4 20.0 13.1 63 4.2 E 7 11 4 6 1017.2 1016.4 0.2
24/02:30pm 20.3 20.5 13.0 63 4.2 NE 4 7 2 4 1017.0 1016.2 0.2
24/02:00pm 20.1 20.3 14.2 69 3.4 ESE 6 7 3 4 1016.6 1015.8 0.2
24/01:30pm 20.1 19.6 13.8 67 3.7 SSE 9 13 5 7 1016.4 1015.6 0.2
24/01:00pm 20.9 20.9 14.1 65 4.0 SSE 7 11 4 6 1016.7 1015.9 0.2
24/12:30pm 20.9 20.3 13.4 62 4.3 SE 9 13 5 7 1017.2 1016.4 0.2
24/12:00pm 20.9 20.2 13.1 61 4.5 ESE 9 13 5 7 1017.6 1016.8 0.2
24/11:30am 20.8 19.1 12.5 59 4.7 ESE 13 20 7 11 1017.9 1017.0 0.2
24/11:00am 21.2 19.4 13.4 61 4.5 SE 15 20 8 11 1018.0 1017.1 0.2
24/10:30am 21.3 20.5 14.0 63 4.3 SE 11 15 6 8 1018.3 1017.4 0.2
24/10:00am 19.3 18.8 14.8 75 2.6 SSE 11 15 6 8 1018.3 1017.4 0.2
24/09:30am 18.6 19.1 15.5 82 1.8 SSE 7 11 4 6 1018.5 1017.6 0.2
24/09:00am 18.5 19.0 15.0 80 2.1 SE 6 9 3 5 1018.4 1017.5 1.4
24/08:30am 18.5 18.9 14.8 79 2.2 SSE 6 9 3 5 1018.7 1017.8 1.4
24/08:00am 18.4 17.5 14.9 80 2.0 SE 13 17 7 9 1017.8 1016.9 1.4
24/07:30am 18.4 19.5 15.5 83 1.7 SE 4 7 2 4 1018.0 1017.1 1.4
24/07:00am 18.3 19.4 16.5 89 1.1 SSE 6 7 3 4 1017.8 1016.9 1.4
24/06:30am 18.5 19.6 16.7 89 1.1 SSE 6 6 3 3 1017.8 1016.9 1.4
24/06:00am 18.7 20.4 16.3 86 1.4 NNE 2 4 1 2 1017.6 1016.8 1.4
24/05:30am 19.3 19.9 15.4 78 2.3 ENE 6 9 3 5 1017.2 1016.4 1.2
24/05:00am 19.4 19.9 15.5 78 2.3 SE 7 9 4 5 1016.7 1015.9 1.2
24/04:30am 19.6 21.2 15.9 79 2.2 S 2 6 1 3 1016.6 1015.8 1.2
24/04:00am 19.6 21.8 16.4 82 1.9 CALM 0 4 0 2 1016.1 1015.3 1.2
24/03:30am 19.4 20.3 16.2 82 1.9 SE 6 7 3 4 1015.9 1015.1 1.2
24/03:00am 19.6 20.2 15.9 79 2.2 SSE 7 13 4 7 1015.9 1015.1 1.2
24/02:30am 20.0 19.9 16.0 78 2.4 SE 11 17 6 9 1015.8 1015.0 1.2
24/02:00am 19.9 20.9 17.7 87 1.4 SSE 9 13 5 7 1016.0 1015.2 1.2
24/01:30am 19.6 21.2 17.9 90 1.1 SSE 6 7 3 4 1016.3 1015.5 1.2
24/01:00am 19.7 21.1 17.8 89 1.2 SE 7 11 4 6 1016.4 1015.6 1.2
24/12:30am 19.8 22.4 18.5 92 0.8 ENE 2 4 1 2 1016.5 1015.7 1.2
24/12:00am 19.9 22.0 18.2 90 1.1 ESE 4 6 2 3 1016.6 1015.8 1.2
 
Date/Time
WST
Temp
°C
App
Temp
°C
Dew
Point
Rel
Hum
%
Delta-T
°C
Wind Press
QNH
hPa
Press
MSL
hPa
Rain
since 9 am
mm
Dir
 
Spd
km/h
Gust
km/h
Spd
kts
Gust
kts
23/11:30pm 20.1 20.9 18.2 89 1.2 SSE 11 15 6 8 1016.5 1015.7 1.2
23/11:00pm 20.3 21.8 18.1 87 1.4 SE 7 15 4 8 1016.6 1015.8 1.2
23/10:30pm 20.2 21.4 18.3 89 1.2 SSE 9 13 5 7 1016.9 1016.1 1.2
23/10:00pm 20.1 20.5 18.2 89 1.2 SE 13 17 7 9 1017.0 1016.2 1.2
23/09:30pm 20.5 21.6 17.9 85 1.6 SE 9 13 5 7 1017.4 1016.6 1.0
23/09:00pm 20.6 21.7 18.0 85 1.6 SSE 9 13 5 7 1017.4 1016.6 0.8
23/08:30pm 20.7 22.0 18.5 87 1.4 S 9 13 5 7 1017.9 1017.0 0.4
23/08:00pm 21.5 21.1 17.1 76 2.7 SSW 15 22 8 12 1017.6 1016.8 0.2
23/07:30pm 21.6 20.7 18.2 81 2.1 SW 20 28 11 15 1017.0 1016.2 0.0
23/07:00pm 22.6 21.5 16.4 68 3.8 SW 17 24 9 13 1016.8 1016.0 0.0
23/06:30pm 24.8 22.6 14.9 54 6.0 SW 20 28 11 15 1016.4 1015.6 0.0
23/06:00pm 26.1 26.7 14.2 48 7.1 WSW 4 15 2 8 1015.7 1014.9 0.0
23/05:30pm 26.9 28.0 13.6 44 7.9 CALM 0 0 0 0 1015.2 1014.4 0.0
23/05:00pm 27.6 28.6 13.2 41 8.5 CALM 0 0 0 0 1015.0 1014.2 0.0
23/04:30pm 28.1 29.1 13.2 39 8.9 CALM 0 0 0 0 1014.7 1013.9 0.0
23/04:00pm 28.5 28.6 11.6 35 9.8 WNW 2 4 1 2 1014.7 1013.9 0.0
23/03:30pm 29.1 28.6 10.7 32 10.6 WNW 4 7 2 4 1014.5 1013.7 0.0
23/03:00pm 29.4 27.9 10.5 31 10.8 N 9 13 5 7 1014.5 1013.7 0.0
23/02:30pm 29.6 28.1 10.7 31 10.9 N 9 15 5 8 1014.7 1013.9 0.0
23/02:00pm 30.6 30.2 11.1 30 11.3 N 4 9 2 5 1014.4 1013.6 0.0
23/01:30pm 30.5 30.1 11.0 30 11.3 SSW 4 13 2 7 1014.8 1014.0 0.0
23/01:00pm 29.8 28.6 10.4 30 11.1 ENE 7 13 4 7 1015.2 1014.4 0.0
23/12:30pm 29.4 28.5 10.5 31 10.8 NE 6 9 3 5 1015.7 1014.9 0.0
23/12:00pm 28.9 27.6 10.1 31 10.7 NE 7 15 4 8 1016.2 1015.4 0.0
23/11:30am 28.6 27.5 9.8 31 10.6 E 6 9 3 5 1016.6 1015.8 0.0
23/11:00am 27.4 25.8 10.2 34 9.7 ENE 9 17 5 9 1016.9 1016.1 0.0
23/10:30am 26.7 24.4 10.4 36 9.2 NE 13 19 7 10 1017.4 1016.6 0.0
23/10:00am 25.7 23.7 11.5 41 8.1 ENE 13 19 7 10 1018.0 1017.1 0.0

Other Formats:

Comma delimited format used in spreadsheet applications
http://www.bom.gov.au/fwo/IDW60801/IDW60801.95317.axf

JavaScript Object Notation format (JSON) in row-major order
http://www.bom.gov.au/fwo/IDW60801/IDW60801.95317.json